createdAt,value
2017-05-05T00:00:01.841Z,22.49
2017-05-05T00:00:20.634Z,22.42
2017-05-05T00:00:39.909Z,22.46
2017-05-05T00:00:59.171Z,22.46
2017-05-05T00:01:18.437Z,22.41
2017-05-05T00:01:37.199Z,22.5
2017-05-05T00:01:56.447Z,22.53
2017-05-05T00:02:14.258Z,22.42
2017-05-05T00:02:32.981Z,22.52
2017-05-05T00:02:52.257Z,22.57
2017-05-05T00:03:10.494Z,22.57
2017-05-05T00:03:29.773Z,22.59
2017-05-05T00:03:49.031Z,22.53
2017-05-05T00:04:07.789Z,22.42
2017-05-05T00:04:26.549Z,22.42
2017-05-05T00:04:45.787Z,22.44
2017-05-05T00:05:05.084Z,22.31
2017-05-05T00:05:24.374Z,22.39
2017-05-05T00:05:43.636Z,22.49
2017-05-05T00:06:02.905Z,22.42
2017-05-05T00:06:22.173Z,22.44
2017-05-05T00:06:41.488Z,22.47
2017-05-05T00:07:00.210Z,22.35
2017-05-05T00:07:19.671Z,22.3
2017-05-05T00:07:38.942Z,22.34
2017-05-05T00:07:58.203Z,22.41
2017-05-05T00:08:15.942Z,22.38
2017-05-05T00:08:34.700Z,22.34
2017-05-05T00:08:53.927Z,22.24
2017-05-05T00:09:13.224Z,22.17
2017-05-05T00:09:31.998Z,22.12
2017-05-05T00:09:51.247Z,22.17
2017-05-05T00:10:10.499Z,22.17
2017-05-05T00:10:29.231Z,22.19
2017-05-05T00:10:48.468Z,22.31
2017-05-05T00:11:07.729Z,22.3
2017-05-05T00:11:26.461Z,22.26
2017-05-05T00:11:45.726Z,22.19
2017-05-05T00:12:05.010Z,22.28
2017-05-05T00:12:23.752Z,22.19
2017-05-05T00:12:42.477Z,22.31
2017-05-05T00:13:01.239Z,22.3
2017-05-05T00:13:20.014Z,22.26
2017-05-05T00:13:39.286Z,22.32
2017-05-05T00:13:58.532Z,22.26
2017-05-05T00:14:17.297Z,22.34
2017-05-05T00:14:36.558Z,22.31
2017-05-05T00:14:55.797Z,22.34
2017-05-05T00:15:14.518Z,22.22
2017-05-05T00:15:33.749Z,22.28
2017-05-05T00:15:53.008Z,22.39
2017-05-05T00:16:11.782Z,22.34
2017-05-05T00:16:31.030Z,22.38
2017-05-05T00:16:50.264Z,22.34
2017-05-05T00:17:09.039Z,22.28
2017-05-05T00:17:28.544Z,22.22
2017-05-05T00:17:47.788Z,22.31
2017-05-05T00:18:05.994Z,22.22
2017-05-05T00:18:24.745Z,22.35
2017-05-05T00:18:43.989Z,22.34
2017-05-05T00:19:03.237Z,22.23
2017-05-05T00:19:22.545Z,22.24
2017-05-05T00:19:41.289Z,22.2
2017-05-05T00:20:00.556Z,22.24
2017-05-05T00:20:19.812Z,22.38
2017-05-05T00:20:39.083Z,22.23
2017-05-05T00:20:58.358Z,22.31
2017-05-05T00:21:17.597Z,22.24
2017-05-05T00:21:36.870Z,22.3
2017-05-05T00:21:56.094Z,22.2
2017-05-05T00:22:15.332Z,22.22
2017-05-05T00:22:34.599Z,22.2
2017-05-05T00:22:53.880Z,22.2
2017-05-05T00:23:12.147Z,22.22
2017-05-05T00:23:31.406Z,22.15
2017-05-05T00:23:50.642Z,22.15
2017-05-05T00:24:09.893Z,22.19
2017-05-05T00:24:29.165Z,22.16
2017-05-05T00:24:48.429Z,22.1
2017-05-05T00:25:06.686Z,22.19
2017-05-05T00:25:25.933Z,22.12
2017-05-05T00:25:45.165Z,22.15
2017-05-05T00:26:04.444Z,22.16
2017-05-05T00:26:23.691Z,22.2
2017-05-05T00:26:42.444Z,22.16
2017-05-05T00:27:01.685Z,22.13
2017-05-05T00:27:20.980Z,22.15
2017-05-05T00:27:40.282Z,22.05
2017-05-05T00:27:59.550Z,22.07
2017-05-05T00:28:18.823Z,22.15
2017-05-05T00:28:38.144Z,22.17
2017-05-05T00:28:56.900Z,22.2
2017-05-05T00:29:15.136Z,22.17
2017-05-05T00:29:34.403Z,22.15
2017-05-05T00:29:53.657Z,22.19
2017-05-05T00:30:12.959Z,22.15
2017-05-05T00:30:31.728Z,22.13
2017-05-05T00:30:50.503Z,22.05
2017-05-05T00:31:09.745Z,22.16
2017-05-05T00:31:29.000Z,22.13
2017-05-05T00:31:48.257Z,22.15
2017-05-05T00:32:07.507Z,22.12
2017-05-05T00:32:26.763Z,22.05
2017-05-05T00:33:18.233Z,22.15
2017-05-05T00:33:36.960Z,22.16
2017-05-05T00:33:56.206Z,22.08
2017-05-05T00:34:15.541Z,22.1
2017-05-05T00:34:35.143Z,22.13
2017-05-05T00:34:54.456Z,22.15
2017-05-05T00:35:13.701Z,22.17
2017-05-05T00:35:32.934Z,22.16
2017-05-05T00:35:52.203Z,22.16
2017-05-05T00:36:10.953Z,22.12
2017-05-05T00:36:30.428Z,22.16
2017-05-05T00:36:49.790Z,22.2
2017-05-05T00:37:09.052Z,22.15
2017-05-05T00:37:28.669Z,22.22
2017-05-05T00:37:47.438Z,22.24
2017-05-05T00:38:06.722Z,22.22
2017-05-05T00:38:25.991Z,22.2
2017-05-05T00:38:45.260Z,22.19
2017-05-05T00:39:04.532Z,22.24
2017-05-05T00:39:23.794Z,22.23
2017-05-05T00:39:42.537Z,22.23
2017-05-05T00:40:01.833Z,22.35
2017-05-05T00:40:21.106Z,22.24
2017-05-05T00:40:40.414Z,22.34
2017-05-05T00:40:59.660Z,22.24
2017-05-05T00:41:18.432Z,22.19
2017-05-05T00:41:37.774Z,22.24
2017-05-05T00:41:57.019Z,22.3
2017-05-05T00:42:16.277Z,22.34
2017-05-05T00:42:35.585Z,22.28
2017-05-05T00:42:54.855Z,22.3
2017-05-05T00:43:14.125Z,22.23
2017-05-05T00:43:33.415Z,22.32
2017-05-05T00:43:52.692Z,22.31
2017-05-05T00:44:11.410Z,22.31
2017-05-05T00:44:30.192Z,22.37
2017-05-05T00:44:49.472Z,22.31
2017-05-05T00:45:07.686Z,22.35
2017-05-05T00:45:26.942Z,22.34
2017-05-05T00:45:46.212Z,22.28
2017-05-05T00:46:04.962Z,22.32
2017-05-05T00:46:23.684Z,22.19
2017-05-05T00:46:43.010Z,22.31
2017-05-05T00:47:02.266Z,22.24
2017-05-05T00:47:21.016Z,22.37
2017-05-05T00:47:40.275Z,22.3
2017-05-05T00:47:59.536Z,22.24
2017-05-05T00:48:18.752Z,22.26
2017-05-05T00:48:37.479Z,22.23
2017-05-05T00:48:56.752Z,22.26
2017-05-05T00:49:16.031Z,22.23
2017-05-05T00:49:34.761Z,22.31
2017-05-05T00:49:53.531Z,22.34
2017-05-05T00:50:11.253Z,22.31
2017-05-05T00:50:29.986Z,22.28
2017-05-05T00:50:48.742Z,22.34
2017-05-05T00:51:08.019Z,22.35
2017-05-05T00:51:27.313Z,22.34
2017-05-05T00:51:46.583Z,22.28
2017-05-05T00:52:08.300Z,22.39
2017-05-05T00:52:26.682Z,22.16
2017-05-05T00:52:45.953Z,22.26
2017-05-05T00:53:05.327Z,22.31
2017-05-05T00:53:24.588Z,22.31
2017-05-05T00:53:43.845Z,22.34
2017-05-05T00:54:03.109Z,22.34
2017-05-05T00:54:22.402Z,22.35
2017-05-05T00:54:41.647Z,22.32
2017-05-05T00:55:00.898Z,22.28
2017-05-05T00:55:20.186Z,22.35
2017-05-05T00:55:39.476Z,22.23
2017-05-05T00:55:58.213Z,22.32
2017-05-05T00:56:16.930Z,22.26
2017-05-05T00:56:35.650Z,22.26
2017-05-05T00:56:54.910Z,22.24
2017-05-05T00:57:13.656Z,22.13
2017-05-05T00:57:32.965Z,22.16
2017-05-05T00:57:52.211Z,22.16
2017-05-05T00:58:10.967Z,22.08
2017-05-05T00:58:30.225Z,22.16
2017-05-05T00:58:49.489Z,22.04
2017-05-05T00:59:08.772Z,22.16
2017-05-05T00:59:27.529Z,22.17
2017-05-05T00:59:46.784Z,22.19
2017-05-05T01:00:05.524Z,22.17
2017-05-05T01:00:24.299Z,22.17
2017-05-05T01:00:43.556Z,22.2
2017-05-05T01:01:02.342Z,22.16
2017-05-05T01:01:21.677Z,22.24
2017-05-05T01:01:40.653Z,22.3
2017-05-05T01:01:59.945Z,22.34
2017-05-05T01:02:18.197Z,22.16
2017-05-05T01:02:37.495Z,22.15
2017-05-05T01:02:56.772Z,22.16
2017-05-05T01:03:16.059Z,22.1
2017-05-05T01:03:34.806Z,22.05
2017-05-05T01:03:53.533Z,22.04
2017-05-05T01:04:12.833Z,22.1
2017-05-05T01:04:32.112Z,21.98
2017-05-05T01:04:50.848Z,21.84
2017-05-05T01:05:09.622Z,21.97
2017-05-05T01:05:28.898Z,21.84
2017-05-05T01:05:48.157Z,21.84
2017-05-05T01:06:07.412Z,21.86
2017-05-05T01:06:26.667Z,21.79
2017-05-05T01:06:45.961Z,21.79
2017-05-05T01:07:05.263Z,21.76
2017-05-05T01:07:24.512Z,21.76
2017-05-05T01:07:43.260Z,21.74
2017-05-05T01:08:02.521Z,21.82
2017-05-05T01:08:21.769Z,21.82
2017-05-05T01:08:40.537Z,21.76
2017-05-05T01:08:59.837Z,21.78
2017-05-05T01:09:19.107Z,21.76
2017-05-05T01:09:37.375Z,21.76
2017-05-05T01:09:56.632Z,21.81
2017-05-05T01:10:15.858Z,21.78
2017-05-05T01:10:34.625Z,21.79
2017-05-05T01:10:53.867Z,21.86
2017-05-05T01:11:13.137Z,21.85
2017-05-05T01:11:32.396Z,21.91
2017-05-05T01:11:51.685Z,21.74
2017-05-05T01:12:10.386Z,21.75
2017-05-05T01:12:29.428Z,21.95
2017-05-05T01:12:48.676Z,21.81
2017-05-05T01:13:07.422Z,21.86
2017-05-05T01:13:26.181Z,21.89
2017-05-05T01:13:45.392Z,21.78
2017-05-05T01:14:04.172Z,21.76
2017-05-05T01:14:23.449Z,21.76
2017-05-05T01:14:42.706Z,21.78
2017-05-05T01:15:02.025Z,21.75
2017-05-05T01:15:20.797Z,21.79
2017-05-05T01:15:39.581Z,21.75
2017-05-05T01:15:58.814Z,21.79
2017-05-05T01:16:17.554Z,21.63
2017-05-05T01:16:36.823Z,21.76
2017-05-05T01:16:55.569Z,21.67
2017-05-05T01:17:14.314Z,21.76
2017-05-05T01:17:33.594Z,21.72
2017-05-05T01:17:52.861Z,21.67
2017-05-05T01:18:12.145Z,21.75
2017-05-05T01:18:31.427Z,21.78
2017-05-05T01:18:50.666Z,21.72
2017-05-05T01:19:09.939Z,21.76
2017-05-05T01:19:28.657Z,21.64
2017-05-05T01:19:47.933Z,21.69
2017-05-05T01:20:06.692Z,21.76
2017-05-05T01:20:25.925Z,21.69
2017-05-05T01:20:45.164Z,21.75
2017-05-05T01:21:04.424Z,21.76
2017-05-05T01:21:23.663Z,21.67
2017-05-05T01:21:42.973Z,21.72
2017-05-05T01:22:02.202Z,21.76
2017-05-05T01:22:21.465Z,21.76
2017-05-05T01:22:40.426Z,21.67
2017-05-05T01:22:59.715Z,21.76
2017-05-05T01:23:18.476Z,21.72
2017-05-05T01:23:37.739Z,21.6
2017-05-05T01:23:57.005Z,21.67
2017-05-05T01:24:15.245Z,21.6
2017-05-05T01:24:34.496Z,21.72
2017-05-05T01:24:53.773Z,21.7
2017-05-05T01:25:13.034Z,21.75
2017-05-05T01:25:31.780Z,21.61
2017-05-05T01:25:50.524Z,21.59
2017-05-05T01:26:08.767Z,21.63
2017-05-05T01:26:27.517Z,21.6
2017-05-05T01:26:46.789Z,21.7
2017-05-05T01:27:06.028Z,21.53
2017-05-05T01:27:24.275Z,21.59
2017-05-05T01:27:43.514Z,21.59
2017-05-05T01:28:02.753Z,21.61
2017-05-05T01:28:21.021Z,21.63
2017-05-05T01:28:40.288Z,21.6
2017-05-05T01:28:59.542Z,21.54
2017-05-05T01:29:18.261Z,21.46
2017-05-05T01:29:37.548Z,21.45
2017-05-05T01:29:56.808Z,21.38
2017-05-05T01:30:15.022Z,21.3
2017-05-05T01:30:34.269Z,21.36
2017-05-05T01:30:53.530Z,21.38
2017-05-05T01:31:12.766Z,21.33
2017-05-05T01:31:31.531Z,21.23
2017-05-05T01:31:50.805Z,21.31
2017-05-05T01:32:09.537Z,21.23
2017-05-05T01:32:28.819Z,21.35
2017-05-05T01:32:47.578Z,21.21
2017-05-05T01:33:06.837Z,21.23
2017-05-05T01:33:26.131Z,21.27
2017-05-05T01:33:45.399Z,21.26
2017-05-05T01:34:04.679Z,21.27
2017-05-05T01:34:23.441Z,21.19
2017-05-05T01:34:42.239Z,21.14
2017-05-05T01:35:01.488Z,21.19
2017-05-05T01:35:20.761Z,21.16
2017-05-05T01:35:40.043Z,21.16
2017-05-05T01:35:59.348Z,21.08
2017-05-05T01:36:18.100Z,21.05
2017-05-05T01:36:36.911Z,21.16
2017-05-05T01:36:56.188Z,21.11
2017-05-05T01:37:15.448Z,21.05
2017-05-05T01:37:34.672Z,20.99
2017-05-05T01:37:53.940Z,21.04
2017-05-05T01:38:13.225Z,20.99
2017-05-05T01:38:31.970Z,20.96
2017-05-05T01:38:51.354Z,20.99
2017-05-05T01:39:10.630Z,20.96
2017-05-05T01:39:30.432Z,20.98
2017-05-05T01:40:04.047Z,20.93
2017-05-05T01:40:23.453Z,20.87
2017-05-05T01:40:42.813Z,20.82
2017-05-05T01:41:02.090Z,20.83
2017-05-05T01:41:21.372Z,20.87
2017-05-05T01:41:40.640Z,20.84
2017-05-05T01:41:59.903Z,20.89
2017-05-05T01:42:19.168Z,20.83
2017-05-05T01:42:38.735Z,20.84
2017-05-05T01:42:57.963Z,20.96
2017-05-05T01:43:17.194Z,20.8
2017-05-05T01:43:35.993Z,20.89
2017-05-05T01:43:55.261Z,20.86
2017-05-05T01:44:14.510Z,20.84
2017-05-05T01:44:33.780Z,20.82
2017-05-05T01:44:52.567Z,20.76
2017-05-05T01:45:11.844Z,20.84
2017-05-05T01:45:31.129Z,20.84
2017-05-05T01:45:50.381Z,20.9
2017-05-05T01:46:09.642Z,20.82
2017-05-05T01:46:28.871Z,20.8
2017-05-05T01:46:47.638Z,20.84
2017-05-05T01:47:06.373Z,20.84
2017-05-05T01:47:24.617Z,20.84
2017-05-05T01:47:43.852Z,20.75
2017-05-05T01:48:03.119Z,20.82
2017-05-05T01:48:21.890Z,20.83
2017-05-05T01:48:41.248Z,20.93
2017-05-05T01:48:59.990Z,20.9
2017-05-05T01:49:18.705Z,20.93
2017-05-05T01:49:38.087Z,20.89
2017-05-05T01:49:57.416Z,20.99
2017-05-05T01:50:16.170Z,20.93
2017-05-05T01:50:34.886Z,20.98
2017-05-05T01:50:53.595Z,20.87
2017-05-05T01:51:12.896Z,20.86
2017-05-05T01:51:31.657Z,20.99
2017-05-05T01:51:50.427Z,20.87
2017-05-05T01:52:09.169Z,20.89
2017-05-05T01:52:27.446Z,20.82
2017-05-05T01:52:46.949Z,20.99
2017-05-05T01:53:05.746Z,21.01
2017-05-05T01:53:24.538Z,20.98
2017-05-05T01:53:43.814Z,21.01
2017-05-05T01:54:02.551Z,21.02
2017-05-05T01:54:21.813Z,21.02
2017-05-05T01:54:41.113Z,21.01
2017-05-05T01:55:00.385Z,20.99
2017-05-05T01:55:19.681Z,20.99
2017-05-05T01:55:38.936Z,20.93
2017-05-05T01:55:58.237Z,20.98
2017-05-05T01:56:17.490Z,20.99
2017-05-05T01:56:36.233Z,21.01
2017-05-05T01:56:55.532Z,21.06
2017-05-05T01:57:14.786Z,21.11
2017-05-05T01:57:34.211Z,21.05
2017-05-05T01:57:53.470Z,21.06
2017-05-05T01:58:12.733Z,21.08
2017-05-05T01:58:31.986Z,21.08
2017-05-05T01:58:51.273Z,21.04
2017-05-05T01:59:10.588Z,21.08
2017-05-05T01:59:29.843Z,21.05
2017-05-05T01:59:49.097Z,21.05
2017-05-05T02:00:08.370Z,20.96
2017-05-05T02:00:27.163Z,21.04
2017-05-05T02:00:46.424Z,21.01
2017-05-05T02:01:05.674Z,21.01
2017-05-05T02:01:24.550Z,20.96
2017-05-05T02:01:43.792Z,20.96
2017-05-05T02:02:02.537Z,20.99
2017-05-05T02:02:21.769Z,21.02
2017-05-05T02:02:41.477Z,21.04
2017-05-05T02:03:00.771Z,20.96
2017-05-05T02:03:53.293Z,21.06
2017-05-05T02:04:12.584Z,21.05
2017-05-05T02:04:31.831Z,21.01
2017-05-05T02:04:51.064Z,20.96
2017-05-05T02:05:10.312Z,20.94
2017-05-05T02:05:29.034Z,21.01
2017-05-05T02:05:47.785Z,20.93
2017-05-05T02:06:07.049Z,20.91
2017-05-05T02:06:24.759Z,20.96
2017-05-05T02:06:43.991Z,20.99
2017-05-05T02:07:02.729Z,20.86
2017-05-05T02:07:22.029Z,20.89
2017-05-05T02:07:41.275Z,20.93
2017-05-05T02:08:00.548Z,20.89
2017-05-05T02:08:19.814Z,20.89
2017-05-05T02:08:38.540Z,20.93
2017-05-05T02:08:57.786Z,20.91
2017-05-05T02:09:16.560Z,20.93
2017-05-05T02:09:35.772Z,20.98
2017-05-05T02:09:55.020Z,20.93
2017-05-05T02:10:14.330Z,21.01
2017-05-05T02:10:33.082Z,21.01
2017-05-05T02:10:52.331Z,21.04
2017-05-05T02:11:11.112Z,21.01
2017-05-05T02:11:30.391Z,21.05
2017-05-05T02:11:49.636Z,20.94
2017-05-05T02:12:08.977Z,20.87
2017-05-05T02:12:28.251Z,21.01
2017-05-05T02:12:47.489Z,21.01
2017-05-05T02:13:06.259Z,21.02
2017-05-05T02:13:24.487Z,20.87
2017-05-05T02:13:43.766Z,20.83
2017-05-05T02:14:03.029Z,20.96
2017-05-05T02:14:22.314Z,20.98
2017-05-05T02:14:41.560Z,20.94
2017-05-05T02:14:59.303Z,20.99
2017-05-05T02:15:18.055Z,20.94
2017-05-05T02:15:37.281Z,20.94
2017-05-05T02:15:56.547Z,20.99
2017-05-05T02:16:15.821Z,21.04
2017-05-05T02:16:35.104Z,20.89
2017-05-05T02:16:54.400Z,20.9
2017-05-05T02:17:13.682Z,20.91
2017-05-05T02:17:32.960Z,20.96
2017-05-05T02:17:52.255Z,20.93
2017-05-05T02:18:11.532Z,20.87
2017-05-05T02:18:30.755Z,20.84
2017-05-05T02:18:50.038Z,20.91
2017-05-05T02:19:08.763Z,20.9
2017-05-05T02:19:28.062Z,20.87
2017-05-05T02:19:47.321Z,20.93
2017-05-05T02:20:06.586Z,20.8
2017-05-05T02:20:24.800Z,20.76
2017-05-05T02:20:44.061Z,20.76
2017-05-05T02:21:02.825Z,20.86
2017-05-05T02:21:21.588Z,20.8
2017-05-05T02:21:40.816Z,20.8
2017-05-05T02:22:00.112Z,20.82
2017-05-05T02:22:18.336Z,20.79
2017-05-05T02:22:37.609Z,20.76
2017-05-05T02:22:56.870Z,20.79
2017-05-05T02:23:15.607Z,20.74
2017-05-05T02:23:34.867Z,20.64
2017-05-05T02:23:54.131Z,20.74
2017-05-05T02:24:12.927Z,20.62
2017-05-05T02:24:32.184Z,20.53
2017-05-05T02:24:50.913Z,20.59
2017-05-05T02:25:09.157Z,20.62
2017-05-05T02:25:28.439Z,20.56
2017-05-05T02:25:47.649Z,20.54
2017-05-05T02:26:06.390Z,20.53
2017-05-05T02:26:25.841Z,20.61
2017-05-05T02:26:45.167Z,20.59
2017-05-05T02:27:04.416Z,20.57
2017-05-05T02:27:23.156Z,20.43
2017-05-05T02:27:42.647Z,20.53
2017-05-05T02:28:01.900Z,20.64
2017-05-05T02:28:20.774Z,20.61
2017-05-05T02:28:40.273Z,20.64
2017-05-05T02:29:02.057Z,20.69
2017-05-05T02:29:21.487Z,20.66
2017-05-05T02:29:40.797Z,20.61
2017-05-05T02:30:00.109Z,20.62
2017-05-05T02:30:18.876Z,20.65
2017-05-05T02:30:37.669Z,20.64
2017-05-05T02:30:56.952Z,20.65
2017-05-05T02:31:15.726Z,20.61
2017-05-05T02:31:34.553Z,20.65
2017-05-05T02:31:53.829Z,20.66
2017-05-05T02:32:13.101Z,20.72
2017-05-05T02:32:32.402Z,20.64
2017-05-05T02:32:51.659Z,20.59
2017-05-05T02:33:10.433Z,20.65
2017-05-05T02:33:29.697Z,20.72
2017-05-05T02:33:48.964Z,20.68
2017-05-05T02:34:07.755Z,20.71
2017-05-05T02:34:26.502Z,20.72
2017-05-05T02:34:45.811Z,20.71
2017-05-05T02:35:05.045Z,20.72
2017-05-05T02:35:24.351Z,20.83
2017-05-05T02:35:43.621Z,20.8
2017-05-05T02:36:02.888Z,20.8
2017-05-05T02:36:22.108Z,20.76
2017-05-05T02:36:41.306Z,20.83
2017-05-05T02:37:00.582Z,20.71
2017-05-05T02:37:19.318Z,20.71
2017-05-05T02:37:38.057Z,20.68
2017-05-05T02:37:57.285Z,20.5
2017-05-05T02:38:16.066Z,20.56
2017-05-05T02:38:34.822Z,20.57
2017-05-05T02:38:54.077Z,20.62
2017-05-05T02:39:13.365Z,20.51
2017-05-05T02:39:32.152Z,20.51
2017-05-05T02:39:50.917Z,20.47
2017-05-05T02:40:10.176Z,20.5
2017-05-05T02:40:28.940Z,20.33
2017-05-05T02:40:48.192Z,20.4
2017-05-05T02:41:07.469Z,20.42
2017-05-05T02:41:26.712Z,20.46
2017-05-05T02:41:45.491Z,20.38
2017-05-05T02:42:04.288Z,20.28
2017-05-05T02:42:23.564Z,20.34
2017-05-05T02:42:43.004Z,20.28
2017-05-05T02:43:02.303Z,20.27
2017-05-05T02:43:21.613Z,20.27
2017-05-05T02:43:40.852Z,20.3
2017-05-05T02:44:00.104Z,20.26
2017-05-05T02:44:19.398Z,20.26
2017-05-05T02:44:37.689Z,20.26
2017-05-05T02:44:56.929Z,20.23
2017-05-05T02:45:16.196Z,20.12
2017-05-05T02:45:35.476Z,20.15
2017-05-05T02:45:54.736Z,20.24
2017-05-05T02:46:14.012Z,20.2
2017-05-05T02:46:33.285Z,20.24
2017-05-05T02:46:52.537Z,20.2
2017-05-05T02:47:11.811Z,20.16
2017-05-05T02:47:31.085Z,20.15
2017-05-05T02:47:50.547Z,20.15
2017-05-05T02:48:09.786Z,20.26
2017-05-05T02:48:29.054Z,20.15
2017-05-05T02:48:47.829Z,20.12
2017-05-05T02:49:07.094Z,20.12
2017-05-05T02:49:26.363Z,20.23
2017-05-05T02:49:45.646Z,20.15
2017-05-05T02:50:04.923Z,20.12
2017-05-05T02:50:24.187Z,20.08
2017-05-05T02:50:43.421Z,20.12
2017-05-05T02:51:02.740Z,20.19
2017-05-05T02:51:22.003Z,20.09
2017-05-05T02:51:40.710Z,20.2
2017-05-05T02:52:00.007Z,20.13
2017-05-05T02:52:19.278Z,20.12
2017-05-05T02:52:38.528Z,20.16
2017-05-05T02:52:57.857Z,20.1
2017-05-05T02:53:17.112Z,20.27
2017-05-05T02:53:35.865Z,20.18
2017-05-05T02:53:55.105Z,20.27
2017-05-05T02:54:14.361Z,20.18
2017-05-05T02:54:33.667Z,20.27
2017-05-05T02:54:52.928Z,20.28
2017-05-05T02:55:11.139Z,20.24
2017-05-05T02:55:30.394Z,20.24
2017-05-05T02:55:49.367Z,20.28
2017-05-05T02:56:08.105Z,20.35
2017-05-05T02:56:27.385Z,20.23
2017-05-05T02:56:46.183Z,20.16
2017-05-05T02:57:04.928Z,20.26
2017-05-05T02:57:24.181Z,20.19
2017-05-05T02:57:43.454Z,20.15
2017-05-05T02:58:02.749Z,20.15
2017-05-05T02:58:22.041Z,20.06
2017-05-05T02:58:40.783Z,20.1
2017-05-05T02:59:00.115Z,20.15
2017-05-05T02:59:19.419Z,20.1
2017-05-05T02:59:37.148Z,20.12
2017-05-05T02:59:56.431Z,20.06
2017-05-05T03:00:15.701Z,20.09
2017-05-05T03:00:34.970Z,20.09
2017-05-05T03:00:54.266Z,20.06
2017-05-05T03:01:13.490Z,19.98
2017-05-05T03:01:31.717Z,19.91
2017-05-05T03:01:50.969Z,19.91
2017-05-05T03:02:09.762Z,19.9
2017-05-05T03:02:28.506Z,19.9
2017-05-05T03:02:47.788Z,19.86
2017-05-05T03:03:07.046Z,19.86
2017-05-05T03:03:26.295Z,19.87
2017-05-05T03:03:45.545Z,19.86
2017-05-05T03:04:04.303Z,19.87
2017-05-05T03:04:23.090Z,19.94
2017-05-05T03:04:42.338Z,19.86
2017-05-05T03:05:01.635Z,19.9
2017-05-05T03:05:20.917Z,19.86
2017-05-05T03:05:40.150Z,19.88
2017-05-05T03:05:59.506Z,19.9
2017-05-05T03:06:18.717Z,19.83
2017-05-05T03:06:37.924Z,19.91
2017-05-05T03:06:57.198Z,19.93
2017-05-05T03:07:15.970Z,19.9
2017-05-05T03:07:35.032Z,19.9
2017-05-05T03:07:54.306Z,19.91
2017-05-05T03:08:13.071Z,19.9
2017-05-05T03:08:31.806Z,19.9
2017-05-05T03:08:51.058Z,19.93
2017-05-05T03:09:10.326Z,19.91
2017-05-05T03:09:29.596Z,19.82
2017-05-05T03:09:48.882Z,19.79
2017-05-05T03:10:08.133Z,19.79
2017-05-05T03:10:26.942Z,19.78
2017-05-05T03:10:46.209Z,19.82
2017-05-05T03:11:05.459Z,19.82
2017-05-05T03:11:24.695Z,19.82
2017-05-05T03:11:43.938Z,19.83
2017-05-05T03:12:03.199Z,19.82
2017-05-05T03:12:22.446Z,19.83
2017-05-05T03:12:41.817Z,19.82
2017-05-05T03:13:01.058Z,19.83
2017-05-05T03:13:20.309Z,19.78
2017-05-05T03:13:39.586Z,19.68
2017-05-05T03:13:58.323Z,19.68
2017-05-05T03:14:17.074Z,19.57
2017-05-05T03:14:36.312Z,19.65
2017-05-05T03:14:55.570Z,19.6
2017-05-05T03:15:14.316Z,19.65
2017-05-05T03:15:33.587Z,19.43
2017-05-05T03:15:52.843Z,19.53
2017-05-05T03:16:12.096Z,19.53
2017-05-05T03:16:30.856Z,19.38
2017-05-05T03:16:50.099Z,19.5
2017-05-05T03:17:09.381Z,19.51
2017-05-05T03:17:27.594Z,19.53
2017-05-05T03:17:46.850Z,19.5
2017-05-05T03:18:06.177Z,19.57
2017-05-05T03:18:24.946Z,19.65
2017-05-05T03:18:44.184Z,19.6
2017-05-05T03:19:03.500Z,19.53
2017-05-05T03:19:22.750Z,19.4
2017-05-05T03:19:42.025Z,19.54
2017-05-05T03:20:01.273Z,19.53
2017-05-05T03:20:20.621Z,19.63
2017-05-05T03:20:39.887Z,19.46
2017-05-05T03:20:59.133Z,19.53
2017-05-05T03:21:17.825Z,19.65
2017-05-05T03:21:37.048Z,19.5
2017-05-05T03:21:55.794Z,19.57
2017-05-05T03:22:14.012Z,19.68
2017-05-05T03:22:33.248Z,19.61
2017-05-05T03:22:52.495Z,19.6
2017-05-05T03:23:11.296Z,19.57
2017-05-05T03:23:30.556Z,19.63
2017-05-05T03:23:49.781Z,19.64
2017-05-05T03:24:09.016Z,19.57
2017-05-05T03:24:28.237Z,19.5
2017-05-05T03:24:47.526Z,19.55
2017-05-05T03:25:06.816Z,19.5
2017-05-05T03:25:26.092Z,19.53
2017-05-05T03:25:45.388Z,19.45
2017-05-05T03:26:04.630Z,19.46
2017-05-05T03:26:23.913Z,19.45
2017-05-05T03:26:43.154Z,19.6
2017-05-05T03:27:02.436Z,19.58
2017-05-05T03:27:21.696Z,19.46
2017-05-05T03:27:41.126Z,19.5
2017-05-05T03:28:00.400Z,19.55
2017-05-05T03:28:19.649Z,19.58
2017-05-05T03:28:37.900Z,19.63
2017-05-05T03:28:57.153Z,19.61
2017-05-05T03:29:16.430Z,19.6
2017-05-05T03:29:35.678Z,19.6
2017-05-05T03:29:54.948Z,19.64
2017-05-05T03:30:14.203Z,19.64
2017-05-05T03:30:33.458Z,19.73
2017-05-05T03:30:52.193Z,19.58
2017-05-05T03:31:11.449Z,19.68
2017-05-05T03:31:29.659Z,19.63
2017-05-05T03:31:48.927Z,19.58
2017-05-05T03:32:08.187Z,19.58
2017-05-05T03:32:26.936Z,19.58
2017-05-05T03:32:46.163Z,19.63
2017-05-05T03:33:05.400Z,19.78
2017-05-05T03:33:24.132Z,19.75
2017-05-05T03:33:43.403Z,19.73
2017-05-05T03:34:02.641Z,19.78
2017-05-05T03:34:21.368Z,19.69
2017-05-05T03:34:40.605Z,19.76
2017-05-05T03:34:59.871Z,19.71
2017-05-05T03:35:18.620Z,19.69
2017-05-05T03:35:37.898Z,19.69
2017-05-05T03:35:57.151Z,19.76
2017-05-05T03:36:15.877Z,19.86
2017-05-05T03:36:35.152Z,19.71
2017-05-05T03:36:54.396Z,19.57
2017-05-05T03:37:13.165Z,19.69
2017-05-05T03:37:31.923Z,19.57
2017-05-05T03:37:51.191Z,19.58
2017-05-05T03:38:10.428Z,19.61
2017-05-05T03:38:28.671Z,19.58
2017-05-05T03:38:47.905Z,19.6
2017-05-05T03:39:07.142Z,19.58
2017-05-05T03:39:26.398Z,19.54
2017-05-05T03:39:45.675Z,19.53
2017-05-05T03:40:04.946Z,19.58
2017-05-05T03:40:24.202Z,19.46
2017-05-05T03:40:43.503Z,19.46
2017-05-05T03:41:02.772Z,19.4
2017-05-05T03:41:22.030Z,19.51
2017-05-05T03:41:41.291Z,19.43
2017-05-05T03:42:00.042Z,19.43
2017-05-05T03:42:19.286Z,19.53
2017-05-05T03:42:38.012Z,19.48
2017-05-05T03:42:57.288Z,19.42
2017-05-05T03:43:16.520Z,19.42
2017-05-05T03:43:35.779Z,19.51
2017-05-05T03:43:55.055Z,19.57
2017-05-05T03:44:14.334Z,19.57
2017-05-05T03:44:33.627Z,19.63
2017-05-05T03:44:52.906Z,19.55
2017-05-05T03:45:12.116Z,19.61
2017-05-05T03:45:31.377Z,19.57
2017-05-05T03:45:50.619Z,19.72
2017-05-05T03:46:09.901Z,19.61
2017-05-05T03:46:28.660Z,19.61
2017-05-05T03:46:47.927Z,19.65
2017-05-05T03:47:07.193Z,19.55
2017-05-05T03:47:26.454Z,19.6
2017-05-05T03:47:45.820Z,19.6
2017-05-05T03:48:05.114Z,19.64
2017-05-05T03:48:23.871Z,19.61
2017-05-05T03:48:43.102Z,19.64
2017-05-05T03:49:02.370Z,19.6
2017-05-05T03:49:21.653Z,19.61
2017-05-05T03:49:40.926Z,19.61
2017-05-05T03:50:00.190Z,19.61
2017-05-05T03:50:18.888Z,19.69
2017-05-05T03:50:38.118Z,19.69
2017-05-05T03:50:57.382Z,19.61
2017-05-05T03:51:16.116Z,19.65
2017-05-05T03:51:34.835Z,19.61
2017-05-05T03:51:53.591Z,19.72
2017-05-05T03:52:12.816Z,19.64
2017-05-05T03:52:32.076Z,19.64
2017-05-05T03:52:51.314Z,19.58
2017-05-05T03:53:10.066Z,19.63
2017-05-05T03:53:28.788Z,19.57
2017-05-05T03:53:48.053Z,19.63
2017-05-05T03:54:07.315Z,19.68
2017-05-05T03:54:26.613Z,19.68
2017-05-05T03:54:45.905Z,19.71
2017-05-05T03:55:05.209Z,19.69
2017-05-05T03:55:24.487Z,19.73
2017-05-05T03:55:43.741Z,19.69
2017-05-05T03:56:02.982Z,19.73
2017-05-05T03:56:22.264Z,19.72
2017-05-05T03:56:41.027Z,19.69
2017-05-05T03:56:59.332Z,19.76
2017-05-05T03:57:18.092Z,19.86
2017-05-05T03:57:37.342Z,19.82
2017-05-05T03:57:56.079Z,19.82
2017-05-05T03:58:14.830Z,19.93
2017-05-05T03:58:34.135Z,19.78
2017-05-05T03:58:53.394Z,19.8
2017-05-05T03:59:12.682Z,19.75
2017-05-05T03:59:31.440Z,19.83
2017-05-05T03:59:50.734Z,19.75
2017-05-05T04:00:09.983Z,19.75
2017-05-05T04:00:29.266Z,19.75
2017-05-05T04:00:48.051Z,19.78
2017-05-05T04:01:06.813Z,19.76
2017-05-05T04:01:26.174Z,19.75
2017-05-05T04:01:45.483Z,19.76
2017-05-05T04:02:04.733Z,19.78
2017-05-05T04:02:23.458Z,19.75
2017-05-05T04:02:42.724Z,19.79
2017-05-05T04:03:01.980Z,19.83
2017-05-05T04:03:20.213Z,19.71
2017-05-05T04:03:39.463Z,19.78
2017-05-05T04:03:58.725Z,19.83
2017-05-05T04:04:17.460Z,19.76
2017-05-05T04:04:36.717Z,19.79
2017-05-05T04:04:55.972Z,19.83
2017-05-05T04:05:15.275Z,19.69
2017-05-05T04:05:34.530Z,19.9
2017-05-05T04:05:53.762Z,19.86
2017-05-05T04:06:12.007Z,19.8
2017-05-05T04:06:30.686Z,19.9
2017-05-05T04:06:49.919Z,19.91
2017-05-05T04:07:09.213Z,19.87
2017-05-05T04:07:27.960Z,19.91
2017-05-05T04:07:47.204Z,19.87
2017-05-05T04:08:06.500Z,19.87